createdAt,value
2019-05-09T00:02:24.503Z,22.89
2019-05-09T00:04:54.817Z,22.88
2019-05-09T00:07:25.237Z,22.89
2019-05-09T00:09:56.651Z,22.90
2019-05-09T00:12:27.126Z,22.89
2019-05-09T00:14:57.492Z,22.89
2019-05-09T00:17:28.106Z,22.89
2019-05-09T00:20:03.561Z,22.90
2019-05-09T00:22:34.085Z,22.90
2019-05-09T00:25:04.529Z,22.91
2019-05-09T00:27:34.829Z,22.93
2019-05-09T00:30:05.609Z,22.92
2019-05-09T00:32:38.105Z,22.90
2019-05-09T00:35:33.914Z,22.91
2019-05-09T00:38:05.721Z,22.92
2019-05-09T00:40:36.207Z,22.91
2019-05-09T00:43:06.434Z,22.91
2019-05-09T00:46:04.193Z,22.93
2019-05-09T00:48:40.328Z,22.92
2019-05-09T00:51:11.001Z,22.92
2019-05-09T00:53:41.362Z,22.94
2019-05-09T00:56:13.468Z,22.93
2019-05-09T00:58:44.200Z,22.92
2019-05-09T01:01:15.747Z,22.93
2019-05-09T01:03:46.174Z,22.93
2019-05-09T01:06:16.461Z,22.93
2019-05-09T01:08:47.403Z,22.93
2019-05-09T01:11:17.702Z,22.92
2019-05-09T01:13:48.007Z,22.93
2019-05-09T01:16:18.309Z,22.92
2019-05-09T01:18:48.671Z,22.92
2019-05-09T01:21:19.093Z,22.91
2019-05-09T01:23:49.485Z,22.90
2019-05-09T01:26:19.761Z,22.92
2019-05-09T01:28:50.128Z,22.93
2019-05-09T01:31:20.647Z,22.93
2019-05-09T01:33:56.150Z,22.94
2019-05-09T01:36:45.432Z,22.94
2019-05-09T01:39:15.814Z,22.95
2019-05-09T01:41:46.012Z,22.94
2019-05-09T01:44:16.402Z,22.96
2019-05-09T01:46:46.808Z,22.95
2019-05-09T01:49:17.313Z,22.96
2019-05-09T01:51:47.656Z,22.95
2019-05-09T01:54:19.812Z,22.95
2019-05-09T01:56:50.142Z,22.96
2019-05-09T01:59:20.523Z,22.95
2019-05-09T02:01:50.937Z,22.95
2019-05-09T02:04:21.329Z,22.95
2019-05-09T02:06:53.762Z,22.94
2019-05-09T02:09:23.929Z,22.95
2019-05-09T02:11:54.712Z,22.96
2019-05-09T02:14:34.371Z,22.95
2019-05-09T02:17:14.888Z,22.94
2019-05-09T02:19:46.115Z,22.94
2019-05-09T02:22:35.027Z,22.95
2019-05-09T02:25:06.816Z,22.96
2019-05-09T02:27:37.140Z,22.96
2019-05-09T02:30:09.690Z,22.96
2019-05-09T02:32:40.014Z,22.96
2019-05-09T02:35:10.501Z,22.96
2019-05-09T02:37:40.870Z,22.96
2019-05-09T02:40:11.972Z,22.96
2019-05-09T02:42:42.368Z,22.96
2019-05-09T02:45:12.842Z,22.96
2019-05-09T02:47:43.155Z,22.96
2019-05-09T02:50:13.793Z,22.97
2019-05-09T02:52:44.209Z,22.96
2019-05-09T02:55:14.578Z,22.95
2019-05-09T02:57:48.740Z,22.95
2019-05-09T03:00:34.905Z,22.96
2019-05-09T03:03:09.681Z,22.97
2019-05-09T03:05:40.349Z,22.97
2019-05-09T03:08:10.604Z,22.98
2019-05-09T03:10:41.407Z,22.97
2019-05-09T03:13:11.965Z,22.98
2019-05-09T03:15:42.935Z,22.97
2019-05-09T03:18:13.191Z,22.95
2019-05-09T03:21:09.075Z,22.95
2019-05-09T03:23:39.696Z,22.96
2019-05-09T03:26:11.645Z,22.97
2019-05-09T03:29:00.081Z,22.97
2019-05-09T03:31:30.178Z,22.97
2019-05-09T03:33:59.610Z,22.96
2019-05-09T03:36:30.457Z,22.98
2019-05-09T03:39:02.468Z,22.97
2019-05-09T03:41:32.791Z,22.97
2019-05-09T03:44:03.318Z,22.97
2019-05-09T03:46:57.938Z,22.97
2019-05-09T03:49:28.329Z,22.97
2019-05-09T03:51:58.863Z,22.97
2019-05-09T03:54:29.241Z,22.97
2019-05-09T03:57:05.109Z,22.96
2019-05-09T03:59:37.865Z,22.95
2019-05-09T04:02:09.989Z,22.97
2019-05-09T04:04:39.567Z,22.95
2019-05-09T04:07:09.760Z,22.95
2019-05-09T04:09:40.008Z,22.95
2019-05-09T04:12:10.350Z,22.96
2019-05-09T04:14:40.716Z,22.96
2019-05-09T04:17:12.575Z,22.96
2019-05-09T04:19:43.807Z,22.96
2019-05-09T04:22:14.204Z,22.97
2019-05-09T04:24:47.410Z,22.97
2019-05-09T04:27:21.511Z,22.98
2019-05-09T04:29:51.928Z,22.98
2019-05-09T04:32:22.305Z,22.99
2019-05-09T04:34:52.712Z,23.00
2019-05-09T04:37:21.370Z,23.00
2019-05-09T04:39:53.918Z,23.02
2019-05-09T04:42:24.013Z,23.01
2019-05-09T04:45:03.437Z,23.00
2019-05-09T04:47:33.928Z,22.98
2019-05-09T04:50:04.744Z,23.00
2019-05-09T04:52:35.196Z,23.02
2019-05-09T04:55:07.836Z,23.03
2019-05-09T04:57:38.364Z,23.03
2019-05-09T05:00:10.459Z,23.03
2019-05-09T05:02:50.974Z,23.05
2019-05-09T05:05:21.398Z,23.05
2019-05-09T05:07:51.768Z,23.03
2019-05-09T05:10:22.224Z,22.99
2019-05-09T05:12:52.731Z,22.95
2019-05-09T05:15:23.407Z,23.00
2019-05-09T05:17:53.717Z,23.02
2019-05-09T05:20:27.755Z,23.04
2019-05-09T05:23:08.281Z,23.05
2019-05-09T05:25:38.810Z,23.06
2019-05-09T05:28:09.187Z,23.07
2019-05-09T05:30:39.633Z,23.08
2019-05-09T05:33:31.612Z,23.08
2019-05-09T05:36:04.891Z,23.09
2019-05-09T05:38:37.565Z,23.12
2019-05-09T05:41:08.064Z,23.13
2019-05-09T05:43:44.141Z,23.13
2019-05-09T05:46:18.762Z,23.14
2019-05-09T05:48:49.694Z,23.15
2019-05-09T05:51:20.063Z,23.16
2019-05-09T05:53:50.468Z,23.16
2019-05-09T05:56:20.797Z,23.17
2019-05-09T05:58:51.094Z,23.18
2019-05-09T06:01:21.602Z,23.18
2019-05-09T06:03:52.022Z,23.19
2019-05-09T06:06:22.466Z,23.19
2019-05-09T06:08:52.800Z,23.19
2019-05-09T06:11:23.216Z,23.19
2019-05-09T06:13:58.504Z,23.20
2019-05-09T06:16:27.966Z,23.21
2019-05-09T06:18:58.705Z,23.21
2019-05-09T06:21:29.224Z,23.21
2019-05-09T06:23:59.587Z,23.22
2019-05-09T06:26:29.973Z,23.21
2019-05-09T06:29:00.447Z,23.22
2019-05-09T06:31:30.835Z,23.22
2019-05-09T06:34:01.236Z,23.23
2019-05-09T06:36:31.770Z,23.22
2019-05-09T06:39:02.318Z,23.23
2019-05-09T06:41:32.730Z,23.23
2019-05-09T06:44:16.346Z,23.23
2019-05-09T06:46:48.361Z,23.24
2019-05-09T06:49:28.325Z,23.24
2019-05-09T06:51:55.163Z,23.24
2019-05-09T06:54:27.755Z,23.24
2019-05-09T06:56:58.537Z,23.24
2019-05-09T06:59:29.084Z,23.25
2019-05-09T07:02:02.119Z,23.25
2019-05-09T07:04:39.462Z,23.26
2019-05-09T07:07:13.697Z,23.26
2019-05-09T07:09:51.141Z,23.25
2019-05-09T07:12:21.548Z,23.27
2019-05-09T07:14:51.933Z,23.27
2019-05-09T07:17:22.388Z,23.28
2019-05-09T07:19:52.817Z,23.28
2019-05-09T07:22:44.824Z,23.28
2019-05-09T07:25:34.118Z,23.29
2019-05-09T07:28:04.734Z,23.29
2019-05-09T07:30:42.768Z,23.29
2019-05-09T07:33:31.925Z,23.30
2019-05-09T07:36:02.191Z,23.29
2019-05-09T07:38:33.057Z,23.30
2019-05-09T07:41:03.717Z,23.30
2019-05-09T07:43:34.187Z,23.31
2019-05-09T07:46:08.497Z,23.31
2019-05-09T07:48:38.305Z,23.32
2019-05-09T07:51:08.803Z,23.32
2019-05-09T07:53:39.332Z,23.32
2019-05-09T07:56:09.697Z,23.32
2019-05-09T07:58:40.026Z,23.33
2019-05-09T08:01:10.309Z,23.33
2019-05-09T08:03:40.737Z,23.33
2019-05-09T08:06:11.051Z,23.33
2019-05-09T08:08:41.485Z,23.34
2019-05-09T08:11:11.761Z,23.33
2019-05-09T08:13:42.193Z,23.35
2019-05-09T08:16:14.784Z,23.35
2019-05-09T08:18:44.644Z,23.35
2019-05-09T08:21:17.879Z,23.36
2019-05-09T08:23:48.670Z,23.35
2019-05-09T08:26:19.761Z,23.35
2019-05-09T08:28:50.125Z,23.35
2019-05-09T08:31:20.617Z,23.34
2019-05-09T08:33:51.032Z,23.35
2019-05-09T08:36:21.409Z,23.36
2019-05-09T08:38:51.739Z,23.36
2019-05-09T08:41:22.122Z,23.35
2019-05-09T08:43:52.672Z,23.37
2019-05-09T08:46:23.078Z,23.36
2019-05-09T08:48:53.539Z,23.35
2019-05-09T08:51:50.873Z,23.37
2019-05-09T08:54:11.400Z,23.37
2019-05-09T08:56:42.834Z,23.37
2019-05-09T08:59:13.325Z,23.36
2019-05-09T09:02:08.346Z,23.38
2019-05-09T09:04:18.804Z,23.38
2019-05-09T09:06:48.362Z,23.37
2019-05-09T09:09:18.921Z,23.37
2019-05-09T09:11:49.302Z,23.38
2019-05-09T09:14:19.673Z,23.38
2019-05-09T09:16:51.061Z,23.38
2019-05-09T09:19:21.484Z,23.38
2019-05-09T09:21:51.872Z,23.39
2019-05-09T09:24:22.280Z,23.39
2019-05-09T09:26:52.628Z,23.39
2019-05-09T09:29:23.035Z,23.40
2019-05-09T09:31:53.431Z,23.39
2019-05-09T09:34:26.936Z,23.40
2019-05-09T09:37:01.603Z,23.40
2019-05-09T09:39:31.163Z,23.40
2019-05-09T09:42:00.103Z,23.41
2019-05-09T09:44:30.424Z,23.41
2019-05-09T09:47:00.949Z,23.41
2019-05-09T09:49:31.406Z,23.41
2019-05-09T09:52:01.720Z,23.41
2019-05-09T09:54:32.513Z,23.41
2019-05-09T09:57:02.869Z,23.42
2019-05-09T10:00:03.993Z,23.42
2019-05-09T10:02:37.811Z,23.42
2019-05-09T10:05:08.751Z,23.42
2019-05-09T10:07:39.135Z,23.41
2019-05-09T10:10:09.604Z,23.41
2019-05-09T10:12:44.326Z,23.41
2019-05-09T10:15:22.924Z,23.41
2019-05-09T10:18:07.511Z,23.40
2019-05-09T10:20:42.722Z,23.42
2019-05-09T10:23:18.111Z,23.40
2019-05-09T10:25:45.093Z,23.39
2019-05-09T10:28:20.057Z,23.39
2019-05-09T10:30:48.487Z,23.39
2019-05-09T10:33:18.980Z,23.41
2019-05-09T10:35:49.273Z,23.41
2019-05-09T10:38:19.596Z,23.40
2019-05-09T10:40:53.163Z,23.41
2019-05-09T10:43:41.022Z,23.41
2019-05-09T10:46:46.683Z,23.41
2019-05-09T10:49:03.689Z,23.40
2019-05-09T10:51:34.126Z,23.41
2019-05-09T10:54:04.460Z,23.41
2019-05-09T10:56:34.725Z,23.42
2019-05-09T10:59:07.575Z,23.41
2019-05-09T11:01:38.324Z,23.41
2019-05-09T11:04:08.884Z,23.41
2019-05-09T11:06:39.626Z,23.42
2019-05-09T11:09:10.500Z,23.42
2019-05-09T11:11:41.000Z,23.41
2019-05-09T11:14:28.706Z,23.42
2019-05-09T11:16:49.104Z,23.41
2019-05-09T11:19:18.381Z,23.41
2019-05-09T11:21:48.158Z,23.42
2019-05-09T11:24:19.622Z,23.41
2019-05-09T11:26:50.025Z,23.40
2019-05-09T11:29:20.557Z,23.40
2019-05-09T11:31:50.887Z,23.40
2019-05-09T11:34:21.354Z,23.40
2019-05-09T11:36:51.841Z,23.41
2019-05-09T11:39:35.579Z,23.40
2019-05-09T11:41:54.527Z,23.40
2019-05-09T11:44:27.264Z,23.41
2019-05-09T11:46:58.223Z,23.41
2019-05-09T11:49:29.553Z,23.40
2019-05-09T11:52:00.035Z,23.40
2019-05-09T11:54:30.298Z,23.42
2019-05-09T11:57:00.781Z,23.41
2019-05-09T11:59:31.641Z,23.42
2019-05-09T12:02:03.143Z,23.43
2019-05-09T12:04:33.556Z,23.44
2019-05-09T12:07:04.135Z,23.43
2019-05-09T12:09:35.143Z,23.44
2019-05-09T12:12:05.666Z,23.43
2019-05-09T12:14:38.176Z,23.43
2019-05-09T12:17:09.155Z,23.43
2019-05-09T12:19:40.349Z,23.44
2019-05-09T12:22:10.681Z,23.45
2019-05-09T12:24:41.062Z,23.45
2019-05-09T12:27:11.506Z,23.44
2019-05-09T12:29:41.907Z,23.46
2019-05-09T12:32:12.351Z,23.47
2019-05-09T12:34:42.818Z,23.48
2019-05-09T12:37:13.202Z,23.47
2019-05-09T12:39:43.597Z,23.46
2019-05-09T12:42:13.857Z,23.47
2019-05-09T12:44:44.388Z,23.46
2019-05-09T12:47:19.014Z,23.46
2019-05-09T12:49:49.003Z,23.46
2019-05-09T12:52:19.891Z,23.46
2019-05-09T12:54:50.361Z,23.45
2019-05-09T12:57:20.926Z,23.49
2019-05-09T12:59:52.880Z,23.48
2019-05-09T13:02:23.499Z,23.48
2019-05-09T13:04:53.869Z,23.50
2019-05-09T13:07:24.061Z,23.50
2019-05-09T13:09:54.276Z,23.52
2019-05-09T13:12:24.507Z,23.54
2019-05-09T13:14:54.678Z,23.54
2019-05-09T13:17:41.967Z,23.56
2019-05-09T13:20:13.167Z,23.57
2019-05-09T13:22:43.674Z,23.58
2019-05-09T13:25:14.226Z,23.59
2019-05-09T13:27:44.730Z,23.60
2019-05-09T13:30:15.348Z,23.60
2019-05-09T13:32:48.205Z,23.60
2019-05-09T13:35:19.913Z,23.59
2019-05-09T13:37:50.690Z,23.60
2019-05-09T13:40:21.409Z,23.60
2019-05-09T13:42:51.840Z,23.61
2019-05-09T13:45:23.172Z,23.61
2019-05-09T13:47:54.460Z,23.61
2019-05-09T13:50:25.074Z,23.61
2019-05-09T13:52:55.494Z,23.61
2019-05-09T13:55:27.495Z,23.61
2019-05-09T13:57:59.434Z,23.61
2019-05-09T14:00:29.879Z,23.62
2019-05-09T14:03:00.264Z,23.61
2019-05-09T14:05:30.587Z,23.62
2019-05-09T14:08:03.774Z,23.62
2019-05-09T14:10:34.193Z,23.60
2019-05-09T14:13:10.741Z,23.61
2019-05-09T14:15:36.779Z,23.62
2019-05-09T14:18:08.306Z,23.62
2019-05-09T14:20:37.737Z,23.62
2019-05-09T14:23:10.864Z,23.62
2019-05-09T14:25:38.091Z,23.62
2019-05-09T14:28:08.557Z,23.63
2019-05-09T14:30:39.037Z,23.62
2019-05-09T14:33:09.615Z,23.63
2019-05-09T14:35:39.978Z,23.63
2019-05-09T14:38:10.250Z,23.62
2019-05-09T14:40:40.682Z,23.63
2019-05-09T14:43:11.064Z,23.61
2019-05-09T14:45:41.597Z,23.60
2019-05-09T14:48:11.830Z,23.56
2019-05-09T14:50:42.286Z,23.48
2019-05-09T14:53:12.522Z,23.42
2019-05-09T14:55:43.432Z,23.41
2019-05-09T14:58:13.852Z,23.38
2019-05-09T15:00:44.299Z,23.38
2019-05-09T15:03:14.638Z,23.38
2019-05-09T15:05:45.129Z,23.38
2019-05-09T15:08:17.932Z,23.36
2019-05-09T15:10:47.606Z,23.36
2019-05-09T15:13:18.477Z,23.35
2019-05-09T15:15:48.874Z,23.35
2019-05-09T15:18:19.392Z,23.33
2019-05-09T15:20:49.729Z,23.34
2019-05-09T15:23:20.094Z,23.37
2019-05-09T15:25:50.551Z,23.35
2019-05-09T15:28:20.722Z,23.30
2019-05-09T15:30:51.049Z,23.26
2019-05-09T15:33:21.253Z,23.26
2019-05-09T15:35:51.523Z,23.24
2019-05-09T15:38:22.537Z,23.24
2019-05-09T15:40:52.844Z,23.24
2019-05-09T15:43:23.142Z,23.22
2019-05-09T15:46:01.997Z,23.25
2019-05-09T15:48:32.511Z,23.24
2019-05-09T15:51:02.836Z,23.26
2019-05-09T15:53:33.252Z,23.24
2019-05-09T15:56:03.689Z,23.26
2019-05-09T15:58:34.172Z,23.26
2019-05-09T16:01:04.648Z,23.26
2019-05-09T16:03:35.123Z,23.25
2019-05-09T16:06:05.433Z,23.24
2019-05-09T16:08:38.170Z,23.23
2019-05-09T16:11:08.676Z,23.25
2019-05-09T16:13:39.338Z,23.24
2019-05-09T16:16:09.504Z,23.24
2019-05-09T16:18:42.790Z,23.25
2019-05-09T16:21:12.017Z,23.24
2019-05-09T16:23:42.469Z,23.23
2019-05-09T16:26:13.006Z,23.22
2019-05-09T16:28:43.482Z,23.24
2019-05-09T16:31:14.005Z,23.24
2019-05-09T16:33:44.448Z,23.24
2019-05-09T16:36:17.523Z,23.23
2019-05-09T16:38:49.137Z,23.23
2019-05-09T16:41:19.692Z,23.25
2019-05-09T16:43:50.042Z,23.22
2019-05-09T16:46:20.531Z,23.22
2019-05-09T16:48:50.756Z,23.22
2019-05-09T16:51:21.051Z,23.22
2019-05-09T16:53:51.348Z,23.22
2019-05-09T16:56:21.738Z,23.23
2019-05-09T16:58:52.220Z,23.23
2019-05-09T17:01:22.633Z,23.24
2019-05-09T17:03:53.669Z,23.24
2019-05-09T17:06:23.995Z,23.25
2019-05-09T17:08:54.415Z,23.25
2019-05-09T17:11:27.651Z,23.23
2019-05-09T17:13:58.396Z,23.23
2019-05-09T17:16:28.905Z,23.23
2019-05-09T17:18:59.237Z,23.24
2019-05-09T17:21:44.739Z,23.24
2019-05-09T17:24:17.445Z,23.23
2019-05-09T17:26:48.842Z,23.23
2019-05-09T17:29:19.457Z,23.22
2019-05-09T17:31:49.824Z,23.22
2019-05-09T17:34:20.137Z,23.22
2019-05-09T17:36:50.553Z,23.21
2019-05-09T17:39:21.005Z,23.19
2019-05-09T17:41:51.376Z,23.20
2019-05-09T17:44:21.886Z,23.18
2019-05-09T17:46:52.317Z,23.19
2019-05-09T17:49:22.591Z,23.18
2019-05-09T17:51:52.977Z,23.19
2019-05-09T17:54:23.287Z,23.18
2019-05-09T17:56:53.748Z,23.20
2019-05-09T17:59:24.215Z,23.16
2019-05-09T18:01:54.599Z,23.16
2019-05-09T18:04:25.176Z,23.13
2019-05-09T18:06:58.188Z,23.14
2019-05-09T18:09:28.551Z,23.15
2019-05-09T18:11:59.063Z,23.13
2019-05-09T18:14:29.521Z,23.13
2019-05-09T18:17:00.241Z,23.12
2019-05-09T18:19:30.708Z,23.12
2019-05-09T18:22:03.178Z,23.10
2019-05-09T18:24:33.499Z,23.08
2019-05-09T18:27:03.913Z,23.07
2019-05-09T18:29:34.381Z,23.08
2019-05-09T18:32:12.457Z,23.06
2019-05-09T18:34:42.917Z,23.05
2019-05-09T18:37:13.568Z,23.05
2019-05-09T18:39:43.822Z,23.04
2019-05-09T18:42:15.222Z,23.03
2019-05-09T18:44:47.619Z,23.02
2019-05-09T18:47:18.540Z,23.02
2019-05-09T18:49:49.137Z,23.01
2019-05-09T18:52:19.612Z,23.01
2019-05-09T18:54:50.178Z,23.01
2019-05-09T18:57:20.610Z,22.99
2019-05-09T18:59:51.051Z,23.00
2019-05-09T19:02:21.443Z,22.98
2019-05-09T19:04:51.825Z,22.99
2019-05-09T19:07:23.041Z,22.96
2019-05-09T19:09:53.468Z,22.97
2019-05-09T19:12:25.658Z,22.96
2019-05-09T19:14:56.089Z,22.98
2019-05-09T19:17:48.725Z,23.03
2019-05-09T19:20:36.686Z,23.06
2019-05-09T19:23:07.033Z,23.06
2019-05-09T19:25:37.569Z,23.09
2019-05-09T19:28:08.130Z,23.10
2019-05-09T19:30:38.674Z,23.12
2019-05-09T19:33:10.000Z,23.15
2019-05-09T19:35:40.409Z,23.17
2019-05-09T19:38:11.473Z,23.15
2019-05-09T19:40:42.079Z,23.12
2019-05-09T19:43:12.530Z,23.10
2019-05-09T19:45:43.757Z,23.11
2019-05-09T19:48:14.224Z,23.08
2019-05-09T19:50:44.761Z,23.07
2019-05-09T19:53:15.062Z,23.07
2019-05-09T19:55:45.379Z,23.07
2019-05-09T19:58:15.852Z,23.08
2019-05-09T20:00:46.335Z,23.08
2019-05-09T20:03:20.422Z,23.06
2019-05-09T20:05:50.984Z,23.06
2019-05-09T20:08:23.243Z,23.05
2019-05-09T20:11:17.736Z,23.07
2019-05-09T20:14:05.462Z,23.07
2019-05-09T20:16:38.385Z,23.06
2019-05-09T20:19:08.829Z,23.07
2019-05-09T20:21:39.343Z,23.06
2019-05-09T20:24:09.879Z,23.06
2019-05-09T20:26:41.168Z,23.07
2019-05-09T20:29:11.863Z,23.07
2019-05-09T20:31:42.519Z,23.07
2019-05-09T20:34:13.172Z,23.06
2019-05-09T20:36:44.349Z,23.06
2019-05-09T20:39:14.979Z,23.07
2019-05-09T20:41:46.894Z,23.08
2019-05-09T20:44:17.686Z,23.09
2019-05-09T20:46:49.003Z,23.09
2019-05-09T20:49:19.788Z,23.08
2019-05-09T20:51:50.746Z,23.08
2019-05-09T20:54:21.729Z,23.10
2019-05-09T20:56:53.383Z,23.09
2019-05-09T20:59:24.067Z,23.07
2019-05-09T21:01:54.621Z,23.05
2019-05-09T21:04:25.230Z,23.08
2019-05-09T21:06:55.625Z,23.08
2019-05-09T21:09:26.441Z,23.12
2019-05-09T21:11:56.925Z,23.15
2019-05-09T21:14:27.609Z,23.17
2019-05-09T21:16:58.087Z,23.18
2019-05-09T21:19:28.769Z,23.20
2019-05-09T21:21:59.437Z,23.20
2019-05-09T21:24:30.298Z,23.21
2019-05-09T21:27:02.689Z,23.21
2019-05-09T21:29:33.428Z,23.21
2019-05-09T21:32:03.977Z,23.22
2019-05-09T21:34:36.737Z,23.23
2019-05-09T21:37:08.258Z,23.24
2019-05-09T21:39:39.769Z,23.25
2019-05-09T21:42:10.190Z,23.25
2019-05-09T21:44:40.477Z,23.26
2019-05-09T21:47:11.041Z,23.25
2019-05-09T21:49:41.365Z,23.25
2019-05-09T21:52:11.768Z,23.26
2019-05-09T21:54:42.496Z,23.25
2019-05-09T21:57:12.870Z,23.25
2019-05-09T21:59:43.420Z,23.24
2019-05-09T22:02:13.804Z,23.25
2019-05-09T22:04:44.179Z,23.24
2019-05-09T22:07:14.822Z,23.25
2019-05-09T22:09:45.173Z,23.25
2019-05-09T22:12:15.724Z,23.24
2019-05-09T22:14:48.221Z,23.24
2019-05-09T22:17:25.218Z,23.22
2019-05-09T22:19:55.633Z,23.22
2019-05-09T22:22:26.024Z,23.21
2019-05-09T22:24:56.418Z,23.20
2019-05-09T22:27:26.915Z,23.20
2019-05-09T22:29:57.402Z,23.18
2019-05-09T22:32:27.819Z,23.17
2019-05-09T22:34:58.284Z,23.17
2019-05-09T22:37:28.680Z,23.16
2019-05-09T22:39:59.236Z,23.16
2019-05-09T22:42:29.685Z,23.15
2019-05-09T22:45:00.169Z,23.14
2019-05-09T22:47:30.455Z,23.14
2019-05-09T22:50:01.421Z,23.13
2019-05-09T22:52:31.840Z,23.12
2019-05-09T22:55:02.637Z,23.12
2019-05-09T22:57:33.041Z,23.11
2019-05-09T23:00:03.778Z,23.12
2019-05-09T23:02:35.792Z,23.10
2019-05-09T23:05:06.228Z,23.10
2019-05-09T23:07:37.059Z,23.10
2019-05-09T23:10:07.720Z,23.10
2019-05-09T23:12:39.893Z,23.07
2019-05-09T23:15:13.197Z,23.09
2019-05-09T23:17:45.292Z,23.07
2019-05-09T23:20:34.527Z,23.06
2019-05-09T23:23:21.954Z,23.05
2019-05-09T23:25:52.365Z,23.06
2019-05-09T23:28:23.061Z,23.05
2019-05-09T23:30:55.746Z,23.04
2019-05-09T23:33:27.881Z,23.04
2019-05-09T23:35:58.274Z,23.03
2019-05-09T23:38:28.650Z,23.03
2019-05-09T23:40:59.090Z,23.03
2019-05-09T23:43:29.278Z,23.03
2019-05-09T23:45:59.760Z,23.02
2019-05-09T23:48:30.148Z,23.02
2019-05-09T23:51:00.587Z,23.02
2019-05-09T23:53:35.891Z,23.00
2019-05-09T23:56:24.295Z,23.01
2019-05-09T23:59:12.008Z,23.00
